VI75 weather

IIT Kanpur Airport
Kalyanpur, Uttar Pradesh, India

Public forecast

Using degrees Celsius for public forecast. Weather courtesy of forecast.io.

METAR (pilot weather report)

Closest report is Chaudhary Charan Singh International Airport, 38.1 nm (70.5 km) ENE. Retrieved 2019/09/16 01:30 UTC (0 seconds ago):

VILK 160130Z 35003KT 2500 -RA SCT020 FEW030CB OVC090 27/26 Q1005 NOSIG

TAF (pilot weather forecast)

Forecast is more than 12 hours old.

Closest forecast is Kanpur Airport, 11.8 nm (21.9 km) SE. Retrieved 2019/08/26 06:30 UTC (21 days ago):

TAF VICX 260330Z 2606/2618 09010KT 6000 FEW015 SCT020 FEW030CB BEC 2613/2615 VRB02KT 6000 SCT020 BEC 2616/2618 07005KT 6000 BKN090